Google Maps JavaScript API Example
Pilot Flight Report # 92775 Submitted by : AST003 on 2019-03-14
Date: 2019-03-14Aircraft: DeHavilland DHC6 Twin Otter - Wheeled
Flight No.: Not AvailableDistance (Nm): 78.61
Departure: YMHB - HobartDestination: YMLT - Launceston
 TimeFuelWeightSpeeds  
Out (Taxi)0336Z1454 lbs10235 lbs Flight RulesIFR
Off (Takeoff)0337Z 10229 lbs85 ktsFlight Level4700
On (Landing)0408Z 9855 lbs52 ktsVSTD-125 ft/min
In (Ramp)0411Z1065 lbs9846 lbs ZFW8783 lbs
Flight0.50  -  0:31375 lbs  Pax0
Block0.58  -  0:35389 lbs  Cargo0
Departure WeatherYMHB 130335Z 21502KT 50SM FEW020 SCT033 15/14 A2988
Destination WeatherYMLT 130411Z 05504KT 53SM -RA BKN105 OVC130 17/15 A2985
Flight Comments